Newport, Canada
Current Conditions -  °F | °C
As of 7:00 PM on Wednesday 26 Nov 2014 (Local Time) from CYGP Reporting Station
Overcast Overcast  
Wind Chill: 25°   Ceiling: 12000
Heat Index: 30°   Visibility: 15mi
Dew Point: 18°   Wind: 5mph
Humidity: 60%   Direction: 320°NW
Pressure: 30.18"   Gusts: NA
Location:  48.27°N, 64.75°W
Report Text: CYGP 270000Z 32004KT 290V350 15SM OVC120 M01/M08 A3018 RMK AC8 PRESFR SLP221
Loading
Personal Weather Stations






























Interactive Weather Map New forecast layout! Learn more

10-Day Weather Forecast

Advertisements
Track Severe Weather on mobile